Time;durP1;ratioP1;P1;durP2;ratioP2;P2;SDS_P1;SDS_P2;PMS_P1;PMS_P2;Temp;Humidity;BMP_temperature;BMP_pressure;BME280_temperature;BME280_humidity;BME280_pressure;Samples;Min_cycle;Max_cycle;Signal;HPM_P1;HPM_P2
2022/06/27 00:01:08;;;;;;;12.23;3.15;;;23.80;99.90;;;;;;4975856;28;20493;-58
2022/06/27 00:03:34;;;;;;;17.40;3.05;;;23.80;99.90;;;;;;4981644;28;20038;-59
2022/06/27 00:05:59;;;;;;;9.90;3.20;;;23.80;99.90;;;;;;4973859;28;20030;-58
2022/06/27 00:08:25;;;;;;;12.88;3.00;;;23.90;99.90;;;;;;4956271;28;20113;-56
2022/06/27 00:10:51;;;;;;;12.02;2.40;;;23.90;99.90;;;;;;4973502;28;20046;-57
2022/06/27 00:13:17;;;;;;;11.88;2.67;;;23.90;99.90;;;;;;4973637;28;20023;-58
2022/06/27 00:15:43;;;;;;;17.75;5.82;;;23.80;99.90;;;;;;4973212;28;20500;-60
2022/06/27 00:18:08;;;;;;;20.65;7.32;;;23.90;99.90;;;;;;4973356;28;20037;-58
2022/06/27 00:20:35;;;;;;;21.35;7.95;;;23.90;99.90;;;;;;4967635;28;20563;-60
2022/06/27 00:23:01;;;;;;;37.83;15.35;;;23.80;99.90;;;;;;4974569;28;20488;-61
2022/06/27 00:25:27;;;;;;;20.80;4.45;;;23.80;99.90;;;;;;4977961;28;20041;-61
2022/06/27 00:27:53;;;;;;;17.23;5.07;;;23.70;99.90;;;;;;4978279;28;20029;-61
2022/06/27 00:30:20;;;;;;;17.95;4.32;;;23.70;99.90;;;;;;4972998;28;20018;-61
2022/06/27 00:32:48;;;;;;;14.35;3.83;;;23.70;99.90;;;;;;4973334;28;20384;-61
2022/06/27 00:35:13;;;;;;;11.18;2.83;;;23.70;99.90;;;;;;4973255;28;20106;-61
2022/06/27 00:37:39;;;;;;;10.98;2.55;;;23.60;99.90;;;;;;4973411;28;20122;-61
2022/06/27 00:40:06;;;;;;;11.02;2.50;;;23.70;99.90;;;;;;4973261;28;20451;-61
2022/06/27 00:42:33;;;;;;;11.60;2.42;;;23.70;99.90;;;;;;4954818;28;20122;-61
2022/06/27 00:44:59;;;;;;;11.45;1.92;;;23.70;99.90;;;;;;4971805;28;20038;-61
2022/06/27 00:47:24;;;;;;;11.52;2.97;;;23.80;99.90;;;;;;4972530;28;20023;-61
2022/06/27 00:49:50;;;;;;;9.38;1.80;;;23.80;99.90;;;;;;4972483;28;20026;-60
2022/06/27 00:52:16;;;;;;;13.90;2.08;;;23.80;99.90;;;;;;4972457;28;20047;-61
2022/06/27 00:54:46;;;;;;;13.65;1.55;;;23.90;99.90;;;;;;4972076;28;20061;-60
2022/06/27 00:57:14;;;;;;;12.93;1.90;;;23.90;99.90;;;;;;4983933;28;20445;-61
2022/06/27 00:59:39;;;;;;;8.02;1.77;;;23.90;99.90;;;;;;4973443;28;20027;-60
2022/06/27 01:02:06;;;;;;;8.55;2.10;;;24.00;99.90;;;;;;4971827;28;20596;-61
2022/06/27 01:04:34;;;;;;;4.07;1.53;;;24.10;99.90;;;;;;4972199;28;20061;-61
2022/06/27 01:06:59;;;;;;;10.60;1.33;;;24.20;99.90;;;;;;4953862;28;20378;-61
2022/06/27 01:09:25;;;;;;;5.22;1.23;;;24.30;99.90;;;;;;4973344;28;20130;-60
2022/06/27 01:11:52;;;;;;;3.03;0.98;;;24.40;99.90;;;;;;4982674;28;20027;-60
2022/06/27 01:14:19;;;;;;;2.78;1.25;;;24.50;99.90;;;;;;4973052;28;20433;-61
2022/06/27 01:16:45;;;;;;;3.95;1.00;;;24.50;99.90;;;;;;4972042;28;20403;-60
2022/06/27 01:19:13;;;;;;;3.97;1.30;;;24.60;99.90;;;;;;4972872;28;20043;-59
2022/06/27 01:21:45;;;;;;;8.85;1.00;;;24.70;99.90;;;;;;4955535;28;20170;-60
2022/06/27 01:24:11;;;;;;;2.72;0.90;;;24.70;99.90;;;;;;4972771;28;20369;-60
2022/06/27 01:26:37;;;;;;;3.00;0.70;;;24.80;99.90;;;;;;4972698;28;20023;-60
2022/06/27 01:29:04;;;;;;;3.45;0.85;;;24.90;99.90;;;;;;4972698;28;20034;-61
2022/06/27 01:31:30;;;;;;;2.55;0.68;;;24.90;99.90;;;;;;4972607;28;20473;-60
2022/06/27 01:33:57;;;;;;;6.88;0.90;;;25.00;99.90;;;;;;4954785;28;20031;-60
2022/06/27 01:39:09;;;;;;;2.42;0.70;;;25.00;99.90;;;;;;4971006;28;20401;-60
2022/06/27 01:41:37;;;;;;;3.90;1.13;;;25.00;99.90;;;;;;4971566;28;20019;-60
2022/06/27 01:44:03;;;;;;;2.58;0.93;;;25.10;99.90;;;;;;4972297;28;20113;-59
2022/06/27 01:47:08;;;;;;;4.03;0.90;;;25.00;99.90;;;;;;4972454;28;20030;-62
2022/06/27 01:49:35;;;;;;;3.78;1.13;;;25.10;99.90;;;;;;4875054;29;20025;-59
2022/06/27 01:52:03;;;;;;;6.20;0.88;;;25.10;99.90;;;;;;4955919;28;20045;-59
2022/06/27 01:54:29;;;;;;;3.00;1.45;;;25.10;99.90;;;;;;4971895;28;20030;-59
2022/06/27 01:56:56;;;;;;;2.90;0.73;;;25.10;99.90;;;;;;4972007;28;20105;-58
2022/06/27 01:59:24;;;;;;;5.50;1.20;;;25.10;99.90;;;;;;4985070;23;20015;-54
2022/06/27 02:01:50;;;;;;;4.70;0.80;;;25.10;99.90;;;;;;4941443;29;20135;-48
2022/06/27 02:04:17;;;;;;;3.67;1.00;;;25.10;99.90;;;;;;4952705;29;20031;-48
2022/06/27 02:06:44;;;;;;;10.55;1.73;;;25.10;99.90;;;;;;4952903;29;20031;-49
2022/06/27 02:09:12;;;;;;;8.02;2.20;;;25.00;99.90;;;;;;4953022;29;20031;-48
2022/06/27 02:11:40;;;;;;;9.20;1.38;;;25.00;99.90;;;;;;4947308;29;20079;-48
2022/06/27 02:14:06;;;;;;;2.58;1.20;;;25.00;99.90;;;;;;4943576;29;20078;-49
2022/06/27 02:16:32;;;;;;;4.38;1.38;;;25.00;99.90;;;;;;4935103;29;20019;-49
2022/06/27 02:18:58;;;;;;;6.95;1.00;;;25.00;99.90;;;;;;4925071;29;20031;-48
2022/06/27 02:21:26;;;;;;;5.50;1.00;;;25.00;99.90;;;;;;4942578;29;20465;-49
2022/06/27 02:23:53;;;;;;;6.47;1.23;;;25.00;99.90;;;;;;4952344;29;20027;-49
2022/06/27 02:26:31;;;;;;;3.28;0.82;;;25.00;99.90;;;;;;4952155;29;20026;-49
2022/06/27 02:28:59;;;;;;;6.55;1.30;;;25.00;99.90;;;;;;4952242;29;20488;-49
2022/06/27 02:31:26;;;;;;;6.65;1.50;;;25.00;99.90;;;;;;4952160;29;20050;-49
2022/06/27 02:33:53;;;;;;;7.22;1.60;;;25.00;99.90;;;;;;4951968;29;20016;-49
2022/06/27 02:36:37;;;;;;;7.43;1.20;;;25.00;99.90;;;;;;4952166;29;20274;-48
2022/06/27 02:39:04;;;;;;;4.70;1.20;;;25.00;99.90;;;;;;4951694;29;20035;-48
2022/06/27 02:41:33;;;;;;;2.58;1.17;;;24.90;99.90;;;;;;4935761;29;20036;-49
2022/06/27 02:44:07;;;;;;;5.07;0.95;;;24.90;99.90;;;;;;4952243;29;20035;-48
2022/06/27 02:46:34;;;;;;;1.58;0.80;;;24.80;99.90;;;;;;4952353;29;20050;-48
2022/06/27 02:49:01;;;;;;;2.95;0.80;;;24.80;99.90;;;;;;4952584;29;20026;-49
2022/06/27 02:51:31;;;;;;;4.00;0.90;;;24.90;99.90;;;;;;4952717;29;20114;-48
2022/06/27 02:54:19;;;;;;;2.25;0.95;;;24.90;99.90;;;;;;4952381;29;20082;-48
2022/06/27 02:57:28;;;;;;;4.03;0.80;;;25.00;99.90;;;;;;4952426;29;20028;-48
2022/06/27 02:59:56;;;;;;;4.00;1.42;;;25.10;99.90;;;;;;4936506;29;20051;-48
2022/06/27 03:02:25;;;;;;;1.35;0.88;;;25.10;99.90;;;;;;4952318;29;20062;-48
2022/06/27 03:04:52;;;;;;;6.78;0.88;;;25.20;99.90;;;;;;4952435;29;20026;-47
2022/06/27 03:07:18;;;;;;;5.15;1.25;;;25.20;99.90;;;;;;4953751;28;20339;-48
2022/06/27 03:09:44;;;;;;;6.18;1.30;;;25.20;99.90;;;;;;4954896;29;20034;-48
2022/06/27 03:12:09;;;;;;;2.58;0.90;;;25.30;99.90;;;;;;4947037;29;20087;-47
2022/06/27 03:14:35;;;;;;;4.10;1.65;;;25.30;99.90;;;;;;4950308;29;20029;-48
2022/06/27 03:17:01;;;;;;;5.78;1.30;;;25.30;99.90;;;;;;4943894;29;20035;-48
2022/06/27 03:19:27;;;;;;;4.28;0.85;;;25.40;99.90;;;;;;4948890;29;20055;-47
2022/06/27 03:21:53;;;;;;;3.92;1.20;;;25.40;99.90;;;;;;4949152;29;20042;-49
2022/06/27 03:24:20;;;;;;;3.20;0.88;;;25.40;99.90;;;;;;4922110;29;20032;-48
2022/06/27 03:26:45;;;;;;;2.10;0.90;;;25.40;99.90;;;;;;4922838;29;20103;-49
2022/06/27 03:29:11;;;;;;;3.22;1.55;;;25.40;99.90;;;;;;4948405;29;20107;-49
2022/06/27 03:31:37;;;;;;;2.13;0.65;;;25.40;99.90;;;;;;4944436;29;20042;-48
2022/06/27 03:34:03;;;;;;;3.38;0.90;;;25.40;99.90;;;;;;4952815;29;20023;-49
2022/06/27 03:36:28;;;;;;;2.85;0.82;;;25.40;99.90;;;;;;4955125;29;20031;-49
2022/06/27 03:38:54;;;;;;;5.80;1.65;;;25.50;99.90;;;;;;4954141;29;20043;-49
2022/06/27 03:41:20;;;;;;;2.65;0.70;;;25.50;99.90;;;;;;4941481;29;20027;-49
2022/06/27 03:43:46;;;;;;;2.42;0.82;;;25.50;99.90;;;;;;4955388;29;20027;-48
2022/06/27 03:46:12;;;;;;;4.93;1.25;;;25.50;99.90;;;;;;4955041;29;20070;-48
2022/06/27 03:51:22;;;;;;;2.45;0.95;;;25.50;99.90;;;;;;4955007;29;20034;-49
2022/06/27 03:53:48;;;;;;;4.18;1.00;;;25.50;99.90;;;;;;4955202;29;20027;-49
2022/06/27 03:56:14;;;;;;;1.52;0.93;;;25.50;99.90;;;;;;4954373;29;20465;-49
2022/06/27 03:58:39;;;;;;;4.43;1.25;;;25.50;99.90;;;;;;4953245;29;20043;-49
2022/06/27 04:01:05;;;;;;;2.03;0.95;;;25.50;99.90;;;;;;4954765;23;20131;-53
2022/06/27 04:03:31;;;;;;;4.32;1.00;;;25.50;99.90;;;;;;4935948;29;20387;-53
2022/06/27 04:05:57;;;;;;;4.85;1.20;;;25.50;99.90;;;;;;4935843;29;20034;-52
2022/06/27 04:08:23;;;;;;;4.90;1.25;;;25.50;99.90;;;;;;4935807;29;20060;-53
2022/06/27 04:10:48;;;;;;;5.30;1.55;;;25.50;99.90;;;;;;4936048;29;20361;-52
2022/06/27 04:13:14;;;;;;;2.70;0.90;;;25.50;99.90;;;;;;4935702;29;20396;-53
2022/06/27 04:15:40;;;;;;;9.13;2.45;;;25.50;99.90;;;;;;4935655;29;20506;-53
2022/06/27 04:18:06;;;;;;;3.08;1.15;;;25.50;99.90;;;;;;4935348;29;20122;-53
2022/06/27 04:20:31;;;;;;;14.00;2.25;;;25.50;99.90;;;;;;4935655;29;20024;-53
2022/06/27 04:22:57;;;;;;;6.40;1.13;;;25.50;99.90;;;;;;4935669;29;20400;-52
2022/06/27 04:25:23;;;;;;;4.90;1.25;;;25.50;99.90;;;;;;4935595;29;20052;-53
2022/06/27 04:27:49;;;;;;;6.13;1.70;;;25.50;99.90;;;;;;4935666;29;20092;-53
2022/06/27 04:30:17;;;;;;;6.30;1.05;;;25.50;99.90;;;;;;4935423;29;20389;-53
2022/06/27 04:32:45;;;;;;;4.10;1.00;;;25.40;99.90;;;;;;4935287;29;20047;-54
2022/06/27 04:35:12;;;;;;;4.63;1.25;;;25.40;99.90;;;;;;4935353;29;20107;-54
2022/06/27 04:37:43;;;;;;;6.32;1.85;;;25.40;99.90;;;;;;4935253;29;20458;-54
2022/06/27 04:40:11;;;;;;;7.40;1.30;;;25.40;99.90;;;;;;4935277;29;20381;-53
2022/06/27 04:42:37;;;;;;;;;;;25.40;99.90;;;;;;4935606;29;20032;-54
2022/06/27 04:45:05;;;;;;;8.00;1.27;;;25.50;99.90;;;;;;4935190;29;20423;-53
2022/06/27 04:47:32;;;;;;;4.30;1.23;;;25.50;99.90;;;;;;4935126;29;20067;-53
2022/06/27 04:49:59;;;;;;;5.68;1.00;;;25.50;99.90;;;;;;4935005;29;20449;-53
2022/06/27 04:52:24;;;;;;;4.20;1.00;;;25.50;99.90;;;;;;4935072;29;20031;-53
2022/06/27 04:54:53;;;;;;;6.70;1.55;;;25.50;99.90;;;;;;4935195;29;20261;-53
2022/06/27 04:57:19;;;;;;;5.03;1.30;;;25.50;99.90;;;;;;4934840;29;20024;-53
2022/06/27 04:59:51;;;;;;;7.10;1.48;;;25.50;99.90;;;;;;4934761;29;20055;-54
2022/06/27 05:02:16;;;;;;;4.50;1.63;;;25.50;99.90;;;;;;4934881;29;20042;-53
2022/06/27 05:04:42;;;;;;;6.55;1.27;;;25.50;99.90;;;;;;4934661;29;20035;-52
2022/06/27 05:07:08;;;;;;;5.55;1.50;;;25.60;99.90;;;;;;4934683;29;20432;-51
2022/06/27 05:09:34;;;;;;;3.45;1.17;;;25.60;99.90;;;;;;4934697;29;20032;-52
2022/06/27 05:12:00;;;;;;;4.55;1.35;;;25.60;99.90;;;;;;4934592;29;20032;-52
2022/06/27 05:14:26;;;;;;;6.20;1.30;;;25.50;99.90;;;;;;4917527;29;20027;-52
2022/06/27 05:16:52;;;;;;;6.03;1.55;;;25.60;99.90;;;;;;4934600;29;20202;-52
2022/06/27 05:19:18;;;;;;;5.05;1.30;;;25.60;99.90;;;;;;4934544;29;20042;-52
2022/06/27 05:21:44;;;;;;;5.70;1.67;;;25.60;99.90;;;;;;4934626;29;20054;-53
2022/06/27 05:24:11;;;;;;;9.68;2.22;;;25.60;99.90;;;;;;4934380;29;20024;-52
2022/06/27 05:26:37;;;;;;;7.72;1.90;;;25.60;99.90;;;;;;4934480;29;20473;-54
2022/06/27 05:29:03;;;;;;;8.43;2.60;;;25.60;99.90;;;;;;4934235;29;20040;-53
2022/06/27 05:31:29;;;;;;;7.18;2.50;;;25.60;99.90;;;;;;4934092;29;20028;-54
2022/06/27 05:33:55;;;;;;;6.22;1.95;;;25.60;99.90;;;;;;4934084;29;20042;-55
2022/06/27 05:36:21;;;;;;;8.68;2.25;;;25.50;99.90;;;;;;4934389;29;20465;-54
2022/06/27 05:38:48;;;;;;;6.35;2.05;;;25.50;99.90;;;;;;4934334;29;20094;-54
2022/06/27 05:41:14;;;;;;;10.63;2.58;;;25.50;99.90;;;;;;4934309;29;20040;-53
2022/06/27 05:43:40;;;;;;;12.48;2.28;;;25.50;99.90;;;;;;4934245;29;20032;-53
2022/06/27 05:46:06;;;;;;;19.67;2.42;;;25.50;99.90;;;;;;4933998;29;20485;-53
2022/06/27 05:48:32;;;;;;;12.07;3.55;;;25.50;99.90;;;;;;4933946;29;20027;-54
2022/06/27 05:50:59;;;;;;;8.75;3.00;;;25.50;99.90;;;;;;4917098;29;20082;-53
2022/06/27 05:53:28;;;;;;;11.67;3.07;;;25.50;99.90;;;;;;4934058;29;20456;-53
2022/06/27 05:55:54;;;;;;;13.80;2.40;;;25.40;99.90;;;;;;4934074;29;20039;-53
2022/06/27 05:58:20;;;;;;;6.78;2.08;;;25.40;99.90;;;;;;4934101;29;20488;-53
2022/06/27 06:00:47;;;;;;;12.48;2.40;;;25.40;99.90;;;;;;4933643;29;20389;-53
2022/06/27 06:03:13;;;;;;;11.05;2.67;;;25.50;99.90;;;;;;4933923;29;20028;-54
2022/06/27 06:05:41;;;;;;;15.20;3.00;;;25.40;99.90;;;;;;4933958;29;20031;-54
2022/06/27 06:08:08;;;;;;;7.18;2.92;;;25.40;99.90;;;;;;4933980;29;20385;-54
2022/06/27 06:10:34;;;;;;;11.00;2.30;;;25.40;99.90;;;;;;4933935;29;20370;-54
2022/06/27 06:13:01;;;;;;;5.47;2.65;;;25.50;99.90;;;;;;4933645;29;20038;-54
2022/06/27 06:15:29;;;;;;;10.70;3.07;;;25.50;99.90;;;;;;4933957;29;20020;-54
2022/06/27 06:17:56;;;;;;;12.93;2.28;;;25.50;99.90;;;;;;4934028;29;20035;-54
2022/06/27 06:20:22;;;;;;;7.15;2.95;;;25.50;99.90;;;;;;4933936;29;20051;-54
2022/06/27 06:22:48;;;;;;;8.50;2.42;;;25.50;99.90;;;;;;4933790;29;20060;-54
2022/06/27 06:25:14;;;;;;;12.73;3.17;;;25.40;99.90;;;;;;4933729;29;20130;-54
2022/06/27 06:27:40;;;;;;;12.00;2.75;;;25.50;99.90;;;;;;4933636;29;20024;-54
2022/06/27 06:30:07;;;;;;;16.13;2.55;;;25.50;99.90;;;;;;4933746;29;20035;-54
2022/06/27 06:32:36;;;;;;;8.27;2.20;;;25.40;99.90;;;;;;4933489;29;20071;-54
2022/06/27 06:35:03;;;;;;;5.82;1.90;;;25.40;99.90;;;;;;4933637;29;20499;-54
2022/06/27 06:37:31;;;;;;;8.23;1.73;;;25.40;99.90;;;;;;4933468;29;20046;-54
2022/06/27 06:39:57;;;;;;;8.27;2.35;;;25.40;99.90;;;;;;4932208;29;20036;-54
2022/06/27 06:42:23;;;;;;;11.60;2.40;;;25.40;99.90;;;;;;4950163;28;20492;-54
2022/06/27 06:44:52;;;;;;;5.40;2.20;;;25.40;99.90;;;;;;4937235;29;20528;-53
2022/06/27 06:47:19;;;;;;;8.98;2.08;;;25.40;99.90;;;;;;4937235;29;20024;-53
2022/06/27 06:49:46;;;;;;;11.50;2.63;;;25.40;99.90;;;;;;4937121;29;20104;-53
2022/06/27 06:52:13;;;;;;;3.92;2.10;;;25.40;99.90;;;;;;4936991;29;20044;-53
2022/06/27 06:54:41;;;;;;;5.13;1.60;;;25.40;99.90;;;;;;4936980;29;20030;-53
2022/06/27 06:57:10;;;;;;;9.10;2.67;;;25.40;99.90;;;;;;4936898;29;20028;-53
2022/06/27 06:59:36;;;;;;;5.70;1.80;;;25.40;99.90;;;;;;4936935;29;20047;-52
2022/06/27 07:02:03;;;;;;;6.75;2.38;;;25.40;99.90;;;;;;4936769;29;20039;-53
2022/06/27 07:04:29;;;;;;;10.07;2.60;;;25.40;99.90;;;;;;4936948;29;20027;-53
2022/06/27 07:06:56;;;;;;;5.25;2.03;;;25.40;99.90;;;;;;4936941;29;20023;-53
2022/06/27 07:09:22;;;;;;;9.55;2.22;;;25.40;99.90;;;;;;4936789;29;20046;-53
2022/06/27 07:11:47;;;;;;;9.98;2.22;;;25.40;99.90;;;;;;4936894;29;20028;-53
2022/06/27 07:14:15;;;;;;;5.78;2.00;;;25.40;99.90;;;;;;4936659;29;20035;-53
2022/06/27 07:16:42;;;;;;;14.93;3.10;;;25.40;99.90;;;;;;4936615;29;20036;-53
2022/06/27 07:19:08;;;;;;;;;;;25.50;99.90;;;;;;4936931;29;20046;-53
2022/06/27 07:21:35;;;;;;;11.75;1.85;;;25.50;99.90;;;;;;4936451;29;19906;-53
2022/06/27 07:24:02;;;;;;;3.42;1.58;;;25.60;99.90;;;;;;4936432;29;20051;-53
2022/06/27 07:26:31;;;;;;;9.27;2.45;;;25.60;99.90;;;;;;4936509;29;20028;-53
2022/06/27 07:28:57;;;;;;;13.77;2.03;;;25.60;99.90;;;;;;4936701;29;20392;-53
2022/06/27 07:31:24;;;;;;;11.63;2.78;;;25.60;99.90;;;;;;4936478;29;20032;-54
2022/06/27 07:33:54;;;;;;;7.97;2.15;;;25.60;99.90;;;;;;4936504;29;20100;-54
2022/06/27 07:36:22;;;;;;;10.43;2.00;;;25.70;99.90;;;;;;4936388;29;20063;-54
2022/06/27 07:38:50;;;;;;;11.50;2.10;;;25.70;99.90;;;;;;4936065;29;20046;-53
2022/06/27 07:41:19;;;;;;;18.40;3.63;;;25.70;99.90;;;;;;4936222;29;20102;-54
2022/06/27 07:43:46;;;;;;;15.82;2.63;;;25.70;99.90;;;;;;4950481;29;20074;-54
2022/06/27 07:46:13;;;;;;;5.80;2.03;;;25.70;99.90;;;;;;4936274;29;20035;-54
2022/06/27 07:48:39;;;;;;;8.52;2.30;;;25.70;99.90;;;;;;4936198;29;20043;-54
2022/06/27 07:51:05;;;;;;;8.27;2.28;;;25.70;99.90;;;;;;4936281;29;20027;-54
2022/06/27 07:53:32;;;;;;;9.38;2.15;;;25.80;99.90;;;;;;4935498;29;20083;-54
2022/06/27 07:56:00;;;;;;;8.68;2.53;;;25.80;99.90;;;;;;4936048;29;20103;-54
2022/06/27 07:58:35;;;;;;;11.15;3.10;;;25.80;99.90;;;;;;4935697;29;20067;-54
2022/06/27 08:01:03;;;;;;;5.72;3.28;;;25.80;99.90;;;;;;4918615;29;20043;-55
2022/06/27 08:03:36;;;;;;;11.48;2.38;;;25.90;99.90;;;;;;4936000;29;20051;-55
2022/06/27 08:06:21;;;;;;;14.05;3.53;;;25.90;99.90;;;;;;4935876;29;20051;-55
2022/06/27 08:08:48;;;;;;;6.75;2.30;;;25.90;99.90;;;;;;4935650;29;20087;-55
2022/06/27 08:11:20;;;;;;;10.10;3.28;;;26.00;99.90;;;;;;4935695;29;20373;-55
2022/06/27 08:13:47;;;;;;;11.48;3.08;;;26.00;99.90;;;;;;4935736;29;20030;-55
2022/06/27 08:16:14;;;;;;;8.90;2.80;;;26.00;99.90;;;;;;4935837;29;20067;-55
2022/06/27 08:18:46;;;;;;;11.70;3.30;;;26.10;99.90;;;;;;4935418;29;20035;-56
2022/06/27 08:21:21;;;;;;;8.27;2.22;;;26.10;99.90;;;;;;4935609;29;20016;-54
2022/06/27 08:23:51;;;;;;;9.73;2.95;;;26.10;99.90;;;;;;4935728;29;20023;-54
2022/06/27 08:26:17;;;;;;;8.02;2.00;;;26.10;99.90;;;;;;4935477;29;20019;-55
2022/06/27 08:28:46;;;;;;;10.45;2.53;;;26.10;99.90;;;;;;4935206;29;20175;-55
2022/06/27 08:31:12;;;;;;;5.38;1.98;;;26.10;99.90;;;;;;4935453;29;20032;-54
2022/06/27 08:33:40;;;;;;;6.53;2.25;;;26.20;99.90;;;;;;4935427;29;20389;-54
2022/06/27 08:36:07;;;;;;;8.13;2.38;;;26.20;99.90;;;;;;4935101;29;20437;-54
2022/06/27 08:38:39;;;;;;;6.07;1.77;;;26.20;99.90;;;;;;4935323;29;20035;-54
2022/06/27 08:41:06;;;;;;;9.75;2.42;;;26.20;99.90;;;;;;4935211;29;20031;-55
2022/06/27 08:43:31;;;;;;;7.72;1.80;;;26.20;99.90;;;;;;4935355;29;20110;-54
2022/06/27 08:45:58;;;;;;;7.47;1.67;;;26.30;99.90;;;;;;4935050;29;20459;-54
2022/06/27 08:48:24;;;;;;;8.45;2.10;;;26.30;99.90;;;;;;4917795;29;20569;-54
2022/06/27 08:50:51;;;;;;;8.90;1.77;;;26.30;99.90;;;;;;4934996;29;20115;-55
2022/06/27 08:53:17;;;;;;;9.88;2.17;;;26.30;99.90;;;;;;4935071;29;20035;-55
2022/06/27 08:55:47;;;;;;;8.07;1.40;;;26.20;99.90;;;;;;4934994;29;20055;-55
2022/06/27 08:58:13;;;;;;;6.32;2.20;;;26.10;99.90;;;;;;4934588;29;20130;-55
2022/06/27 09:00:45;;;;;;;6.25;1.52;;;26.10;99.90;;;;;;4934610;29;20146;-55
2022/06/27 09:03:12;;;;;;;7.72;1.73;;;26.00;99.90;;;;;;4934731;29;20031;-55
2022/06/27 09:05:38;;;;;;;10.98;2.22;;;26.00;99.90;;;;;;4933994;29;20024;-55
2022/06/27 09:08:06;;;;;;;9.00;1.88;;;25.90;99.90;;;;;;4934665;29;20032;-55
2022/06/27 09:10:36;;;;;;;4.78;1.70;;;25.90;99.90;;;;;;4934516;29;20503;-55
2022/06/27 09:13:07;;;;;;;6.40;1.95;;;25.90;99.90;;;;;;4934640;29;20392;-55
2022/06/27 09:16:00;;;;;;;13.02;1.90;;;25.90;99.90;;;;;;4934607;29;20028;-55
2022/06/27 09:18:36;;;;;;;8.70;2.33;;;26.00;99.90;;;;;;4934464;29;20032;-55
2022/06/27 09:21:13;;;;;;;7.65;1.90;;;25.90;99.90;;;;;;4917468;29;20019;-55
2022/06/27 09:23:45;;;;;;;8.82;2.28;;;25.90;99.90;;;;;;4934370;29;20040;-55
2022/06/27 09:26:18;;;;;;;9.43;1.60;;;25.90;99.90;;;;;;4917210;29;20416;-55
2022/06/27 09:29:01;;;;;;;8.73;1.60;;;25.90;99.90;;;;;;4934385;29;20167;-55
2022/06/27 09:31:28;;;;;;;7.13;1.80;;;26.00;99.90;;;;;;4934324;29;20074;-55
2022/06/27 09:34:08;;;;;;;8.50;1.67;;;26.00;99.90;;;;;;4917159;29;20031;-55
2022/06/27 09:36:55;;;;;;;4.88;1.45;;;26.00;99.90;;;;;;4934391;29;20024;-55
2022/06/27 09:39:39;;;;;;;6.95;1.30;;;26.10;99.90;;;;;;4934438;29;20553;-55
2022/06/27 09:42:10;;;;;;;12.48;1.88;;;26.10;99.90;;;;;;4934158;29;20023;-56
2022/06/27 09:44:40;;;;;;;9.10;1.42;;;26.10;99.90;;;;;;4934160;29;20028;-55
2022/06/27 09:47:26;;;;;;;8.07;1.85;;;26.20;99.90;;;;;;4917143;29;20035;-55
2022/06/27 09:49:54;;;;;;;5.25;1.60;;;26.20;99.90;;;;;;4934417;29;20389;-55
2022/06/27 09:52:23;;;;;;;13.38;3.55;;;26.20;99.90;;;;;;4932729;29;20024;-55
2022/06/27 09:54:52;;;;;;;8.38;3.10;;;26.20;99.90;;;;;;4934216;29;20035;-55
2022/06/27 09:57:19;;;;;;;7.60;2.15;;;26.20;99.90;;;;;;4916808;29;20030;-55
2022/06/27 09:59:47;;;;;;;9.50;3.20;;;26.10;99.90;;;;;;4933647;29;20532;-55
2022/06/27 10:02:16;;;;;;;7.45;1.70;;;26.10;99.90;;;;;;4929997;29;20028;-53
2022/06/27 10:04:43;;;;;;;8.80;3.80;;;26.20;99.90;;;;;;4931183;29;20019;-55
2022/06/27 10:07:10;;;;;;;;;;;26.20;99.90;;;;;;4947423;29;20032;-55
2022/06/27 10:09:37;;;;;;;4.32;1.65;;;26.30;99.90;;;;;;4953003;29;19906;-55
2022/06/27 10:12:25;;;;;;;10.68;4.50;;;26.30;99.90;;;;;;4952885;29;20430;-55
2022/06/27 10:15:09;;;;;;;11.15;5.18;;;26.30;99.90;;;;;;4931959;29;20365;-53
2022/06/27 10:17:57;;;;;;;8.90;1.67;;;26.30;99.90;;;;;;4931305;29;20023;-54
2022/06/27 10:20:26;;;;;;;6.28;2.38;;;26.30;99.90;;;;;;4951341;29;20474;-54
2022/06/27 10:23:13;;;;;;;5.43;2.17;;;26.30;99.90;;;;;;4943330;29;20988;-55
2022/06/27 10:25:46;;;;;;;8.20;2.55;;;26.20;99.90;;;;;;4943189;29;20032;-53
2022/06/27 10:28:13;;;;;;;11.70;3.42;;;26.20;99.90;;;;;;4936297;29;20054;-53
2022/06/27 10:30:39;;;;;;;10.85;3.15;;;26.10;99.90;;;;;;4937464;29;20051;-53
2022/06/27 10:33:23;;;;;;;9.10;3.13;;;26.00;99.90;;;;;;4949952;29;20035;-52
2022/06/27 10:35:57;;;;;;;6.18;2.63;;;25.90;99.90;;;;;;4956253;29;20058;-54
2022/06/27 10:38:24;;;;;;;11.18;3.83;;;25.80;99.90;;;;;;4922476;29;20126;-53
2022/06/27 10:40:52;;;;;;;8.27;1.88;;;25.80;99.90;;;;;;4918092;29;20024;-52
2022/06/27 10:43:39;;;;;;;8.80;2.28;;;25.70;99.90;;;;;;4935069;29;20038;-52
2022/06/27 10:46:10;;;;;;;6.60;1.60;;;25.70;99.90;;;;;;4935517;29;20032;-51
2022/06/27 10:48:41;;;;;;;10.30;2.28;;;25.80;99.90;;;;;;4925929;29;20694;-52
2022/06/27 10:51:33;;;;;;;9.43;2.90;;;25.80;99.90;;;;;;4937085;29;20060;-52
2022/06/27 10:53:59;;;;;;;7.32;1.90;;;25.80;99.90;;;;;;4931175;29;20035;-54
2022/06/27 10:56:46;;;;;;;13.07;3.15;;;25.70;99.90;;;;;;4923161;29;20047;-53
2022/06/27 10:59:15;;;;;;;15.02;2.17;;;25.60;99.90;;;;;;4940794;29;20070;-53
2022/06/27 11:01:57;;;;;;;9.13;2.72;;;25.50;99.90;;;;;;4936395;29;20059;-51
2022/06/27 11:04:27;;;;;;;8.80;2.40;;;25.50;99.90;;;;;;4926590;29;20027;-52
2022/06/27 11:06:56;;;;;;;11.20;1.90;;;25.40;99.90;;;;;;4950119;29;20070;-52
2022/06/27 11:09:44;;;;;;;8.43;1.88;;;25.30;99.90;;;;;;4922480;29;20516;-52
2022/06/27 11:12:18;;;;;;;10.43;3.45;;;25.30;99.90;;;;;;4921795;29;20097;-52
2022/06/27 11:14:54;;;;;;;12.68;3.35;;;25.20;99.90;;;;;;4946273;29;20023;-52
2022/06/27 11:17:33;;;;;;;12.32;3.30;;;25.20;99.90;;;;;;4920030;29;20028;-52
2022/06/27 11:20:21;;;;;;;12.60;5.90;;;25.10;99.90;;;;;;4924208;29;20032;-53
2022/06/27 11:23:01;;;;;;;19.33;8.13;;;25.10;99.90;;;;;;4938704;29;20028;-52
2022/06/27 11:25:29;;;;;;;8.15;4.25;;;25.00;99.90;;;;;;4943885;29;20094;-53
2022/06/27 11:31:57;;;;;;;;;;;25.00;99.90;;;;;;4922419;29;20067;-52
2022/06/27 11:33:31;;;;;;;14.30;3.10;;;25.00;99.90;;;;;;4917114;29;20687;-53
2022/06/27 11:35:58;;;;;;;9.98;3.53;;;25.00;99.90;;;;;;4916756;29;20059;-53
2022/06/27 11:38:30;;;;;;;11.63;3.22;;;24.90;99.90;;;;;;4916649;29;20124;-53
2022/06/27 11:41:15;;;;;;;16.98;4.22;;;24.90;99.90;;;;;;4916409;29;20415;-53
2022/06/27 11:43:56;;;;;;;10.13;2.30;;;24.80;99.90;;;;;;4917178;29;20055;-55
2022/06/27 11:46:28;;;;;;;14.68;2.92;;;24.70;99.90;;;;;;4917273;29;20515;-56
2022/06/27 11:48:59;;;;;;;11.77;2.95;;;24.70;99.90;;;;;;4917034;29;20028;-55
2022/06/27 11:51:33;;;;;;;14.40;3.85;;;24.80;99.90;;;;;;4917302;29;20065;-55
2022/06/27 11:54:10;;;;;;;29.80;2.80;;;24.90;99.90;;;;;;4917211;29;20027;-55
2022/06/27 11:56:40;;;;;;;;;;;24.90;99.90;;;;;;4919585;29;20032;-55
2022/06/27 11:59:08;;;;;;;14.20;2.70;;;24.90;99.90;;;;;;4932507;29;19921;-54
2022/06/27 12:01:51;;;;;;;14.90;3.55;;;24.90;99.90;;;;;;4935735;29;20048;-55
2022/06/27 12:04:19;;;;;;;11.80;2.80;;;24.80;99.90;;;;;;4921778;29;20039;-55
2022/06/27 12:06:49;;;;;;;16.67;4.95;;;24.70;99.90;;;;;;4926503;29;20027;-55
2022/06/27 12:09:15;;;;;;;12.95;3.15;;;24.70;99.90;;;;;;4939724;29;20038;-54
2022/06/27 12:12:07;;;;;;;17.35;6.57;;;24.80;99.90;;;;;;4936721;29;20526;-54
2022/06/27 12:14:45;;;;;;;16.45;6.85;;;24.90;99.90;;;;;;4914985;29;20032;-54
2022/06/27 12:17:11;;;;;;;22.70;5.78;;;25.00;99.90;;;;;;4916428;29;20031;-54
2022/06/27 12:19:37;;;;;;;19.10;4.20;;;25.00;99.90;;;;;;4916321;29;20028;-55
2022/06/27 12:22:03;;;;;;;23.08;7.22;;;24.90;99.90;;;;;;4934236;29;20024;-54
2022/06/27 12:24:30;;;;;;;23.02;5.10;;;24.90;99.90;;;;;;4929633;29;20366;-55
2022/06/27 12:26:56;;;;;;;16.85;5.55;;;24.80;99.90;;;;;;4936792;29;20019;-55
2022/06/27 12:29:22;;;;;;;18.25;6.55;;;24.90;99.90;;;;;;4941104;29;20028;-54
2022/06/27 12:31:49;;;;;;;18.20;5.55;;;24.90;99.90;;;;;;4945761;29;20092;-55
2022/06/27 12:34:14;;;;;;;14.77;6.13;;;24.90;99.90;;;;;;4926931;29;20049;-55
2022/06/27 12:36:41;;;;;;;15.98;4.00;;;24.80;99.90;;;;;;4940553;29;20177;-56
2022/06/27 12:39:08;;;;;;;11.18;3.13;;;24.70;99.90;;;;;;4945863;29;20131;-55
2022/06/27 12:41:35;;;;;;;15.93;3.13;;;24.60;99.90;;;;;;4931684;29;20028;-56
2022/06/27 12:44:01;;;;;;;9.93;3.67;;;24.60;99.90;;;;;;4942321;29;20277;-54
2022/06/27 12:46:27;;;;;;;20.67;4.07;;;24.70;99.90;;;;;;4940698;29;20028;-55
2022/06/27 12:48:55;;;;;;;14.32;2.58;;;24.70;99.90;;;;;;4933060;29;20086;-54
2022/06/27 12:51:23;;;;;;;13.38;2.95;;;24.70;99.90;;;;;;4938590;29;20171;-55
2022/06/27 12:53:49;;;;;;;14.65;2.78;;;24.70;99.90;;;;;;4928629;29;20047;-60
2022/06/27 12:56:15;;;;;;;13.38;2.92;;;24.80;99.90;;;;;;4946780;29;20019;-55
2022/06/27 12:58:41;;;;;;;13.48;2.67;;;24.90;99.90;;;;;;4939461;29;20390;-56
2022/06/27 13:01:07;;;;;;;9.82;2.85;;;24.90;99.90;;;;;;4920410;29;20047;-55
2022/06/27 13:03:33;;;;;;;14.10;3.17;;;24.90;99.90;;;;;;4938175;29;20024;-55